createdAt,value
2022-12-24T08:20:17.372Z,100466.03
2022-12-24T08:25:20.518Z,100466.19
2022-12-24T08:30:22.812Z,100479.22
2022-12-24T08:35:25.034Z,100477.09
2022-12-24T08:40:27.403Z,100488.25
2022-12-24T08:45:33.173Z,100489.38
2022-12-24T08:50:39.880Z,100491.53
2022-12-24T08:55:42.432Z,100499.63
2022-12-24T09:00:45.280Z,100501.66
2022-12-24T09:05:47.879Z,100512.06
2022-12-24T09:10:50.082Z,100509.53
2022-12-24T09:15:55.728Z,100527.19
2022-12-24T09:21:06.603Z,100525.78
2022-12-24T09:26:12.339Z,100530.34
2022-12-24T09:31:15.182Z,100527.53
2022-12-24T09:36:18.558Z,100537.91
2022-12-24T09:41:55.330Z,100549.13
2022-12-24T09:47:05.387Z,100553.78
2022-12-24T09:52:20.658Z,100559.00
2022-12-24T09:57:35.877Z,100570.91
2022-12-24T10:02:38.240Z,100576.00
2022-12-24T10:07:50.136Z,100582.09
2022-12-24T10:13:32.690Z,100571.16
2022-12-24T10:18:58.985Z,100572.94
2022-12-24T10:24:22.466Z,100592.59
2022-12-24T10:29:28.935Z,100588.69
2022-12-24T10:34:36.284Z,100592.84
2022-12-24T10:39:38.553Z,100599.44
2022-12-24T10:44:40.953Z,100612.50
2022-12-24T10:49:50.347Z,100637.53
2022-12-24T10:55:08.083Z,100632.69
2022-12-24T11:00:28.579Z,100651.97
2022-12-24T11:05:37.440Z,100647.03
2022-12-24T11:10:56.169Z,100646.38
2022-12-24T11:16:06.464Z,100637.88
2022-12-24T11:21:08.853Z,100650.19
2022-12-24T11:26:11.132Z,100653.13
2022-12-24T11:31:21.099Z,100647.88
2022-12-24T11:36:26.529Z,100668.84
2022-12-24T11:41:37.295Z,100662.38
2022-12-24T11:46:43.386Z,100662.00
2022-12-24T11:52:12.107Z,100665.44
2022-12-24T11:57:18.766Z,100650.72
2022-12-24T12:02:38.159Z,100653.88
2022-12-24T12:07:42.707Z,100681.03
2022-12-24T12:12:50.156Z,100682.19
2022-12-24T12:17:55.320Z,100674.19
2022-12-24T12:23:02.648Z,100687.50
2022-12-24T12:28:14.353Z,100699.03
2022-12-24T12:33:26.756Z,100694.38
2022-12-24T12:38:29.343Z,100703.50
2022-12-24T12:43:34.483Z,100704.75
2022-12-24T12:49:05.959Z,100712.50
2022-12-24T12:54:21.175Z,100724.06
2022-12-24T12:59:32.349Z,100729.03
2022-12-24T13:04:34.495Z,100729.03
2022-12-24T13:10:02.474Z,100726.00
2022-12-24T13:15:24.910Z,100723.69
2022-12-24T13:20:31.440Z,100733.09
2022-12-24T13:25:40.095Z,100723.03
2022-12-24T13:30:42.660Z,100731.69
2022-12-24T13:35:59.788Z,100728.53
2022-12-24T13:41:41.464Z,100741.59
2022-12-24T13:47:25.364Z,100747.44
2022-12-24T13:52:35.401Z,100750.22
2022-12-24T13:57:58.040Z,100755.69
2022-12-24T14:03:15.447Z,100770.53
2022-12-24T14:08:40.376Z,100769.00
2022-12-24T14:13:42.535Z,100782.59
2022-12-24T14:18:58.087Z,100790.56
2022-12-24T14:24:07.760Z,100800.34
2022-12-24T14:29:31.195Z,100801.13
2022-12-24T14:34:33.512Z,100812.91
2022-12-24T14:39:39.033Z,100808.75
2022-12-24T14:44:59.696Z,100810.88
2022-12-24T14:50:21.758Z,100816.88
2022-12-24T14:55:50.885Z,100824.47
2022-12-24T15:00:59.888Z,100821.03
2022-12-24T15:06:05.366Z,100829.78
2022-12-24T15:11:10.233Z,100838.28
2022-12-24T15:16:22.260Z,100850.25
2022-12-24T15:21:33.239Z,100853.66
2022-12-24T15:26:36.628Z,100857.59
2022-12-24T15:31:39.035Z,100862.41
2022-12-24T15:36:41.251Z,100854.63
2022-12-24T15:42:03.967Z,100865.66
2022-12-24T15:47:18.691Z,100872.13
2022-12-24T15:52:24.657Z,100868.69
2022-12-24T15:57:31.940Z,100873.38
2022-12-24T16:02:42.262Z,100876.94
2022-12-24T16:08:08.599Z,100887.22
2022-12-24T16:13:31.327Z,100888.75
2022-12-24T16:18:49.027Z,100893.19
2022-12-24T16:23:54.629Z,100892.91
2022-12-24T16:28:56.874Z,100907.41
2022-12-24T16:34:01.067Z,100917.25
2022-12-24T16:39:21.563Z,100924.09
2022-12-24T16:44:23.760Z,100918.19
2022-12-24T16:49:26.971Z,100931.91
2022-12-24T16:54:30.117Z,100940.13
2022-12-24T16:59:32.715Z,100933.94
2022-12-24T17:04:35.142Z,100936.63
2022-12-24T17:09:37.404Z,100943.59
2022-12-24T17:14:40.745Z,100945.47
2022-12-24T17:19:43.109Z,100961.13
2022-12-24T17:24:45.691Z,100960.28
2022-12-24T17:29:47.984Z,100961.16
2022-12-24T17:34:50.242Z,100962.81
2022-12-24T17:39:52.472Z,100965.00
2022-12-24T17:44:54.731Z,100969.31
2022-12-24T17:49:56.993Z,100967.34
2022-12-24T17:54:59.358Z,100974.38
2022-12-24T18:00:01.760Z,100984.41
2022-12-24T18:05:23.903Z,100990.91
2022-12-24T18:10:26.173Z,101002.84
2022-12-24T18:15:28.435Z,101011.03
2022-12-24T18:20:33.778Z,101005.56
2022-12-24T18:25:36.023Z,101012.84
2022-12-24T18:30:38.253Z,101013.31
2022-12-24T18:35:40.523Z,101008.25
2022-12-24T18:40:42.772Z,101017.63
2022-12-24T18:45:45.854Z,101023.69
2022-12-24T18:50:56.187Z,101029.91
2022-12-24T18:56:17.816Z,101034.34
2022-12-24T19:01:25.378Z,101031.47
2022-12-24T19:06:28.107Z,101054.03
2022-12-24T19:11:32.587Z,101063.94
2022-12-24T19:16:36.930Z,101072.22
2022-12-24T19:21:39.298Z,101080.94
2022-12-24T19:26:41.595Z,101077.78
2022-12-24T19:31:47.194Z,101084.00
2022-12-24T19:36:49.653Z,101084.03
2022-12-24T19:41:52.500Z,101083.53
2022-12-24T19:46:54.801Z,101092.63
2022-12-24T19:51:57.280Z,101098.88
2022-12-24T19:56:59.518Z,101105.75
2022-12-24T20:02:02.341Z,101105.88
2022-12-24T20:07:04.669Z,101105.66
2022-12-24T20:12:07.325Z,101102.41
2022-12-24T20:17:10.018Z,101091.72
2022-12-24T20:22:12.753Z,101089.09
2022-12-24T20:27:15.058Z,101094.34
2022-12-24T20:32:17.426Z,101101.34
2022-12-24T20:37:19.748Z,101105.59
2022-12-24T20:42:22.029Z,101109.16
2022-12-24T20:47:24.290Z,101108.47
2022-12-24T20:52:26.620Z,101112.50
2022-12-24T20:57:34.398Z,101105.06
2022-12-24T21:02:38.730Z,101106.00
2022-12-24T21:07:42.991Z,101101.97
2022-12-24T21:12:56.762Z,101111.50
2022-12-24T21:17:59.802Z,101118.97
2022-12-24T21:23:02.318Z,101124.50
2022-12-24T21:28:04.774Z,101131.94
2022-12-24T21:33:06.997Z,101138.31
2022-12-24T21:38:09.249Z,101145.41
2022-12-24T21:43:11.447Z,101151.88
2022-12-24T21:48:32.200Z,101159.13
2022-12-24T21:53:52.988Z,101160.97
2022-12-24T21:58:55.202Z,101164.59
2022-12-24T22:03:57.438Z,101181.22
2022-12-24T22:09:20.437Z,101179.31
2022-12-24T22:14:22.678Z,101169.09
2022-12-24T22:19:25.201Z,101171.25
2022-12-24T22:24:27.461Z,101181.19
2022-12-24T22:29:29.791Z,101192.41
2022-12-24T22:34:32.840Z,101189.81
2022-12-24T22:39:35.112Z,101197.50
2022-12-24T22:44:37.369Z,101203.31
2022-12-24T22:49:39.585Z,101214.66
2022-12-24T22:54:41.945Z,101223.75
2022-12-24T22:59:44.500Z,101226.47
2022-12-24T23:04:46.919Z,101233.13
2022-12-24T23:09:49.237Z,101247.41
2022-12-24T23:14:57.338Z,101255.56
2022-12-24T23:20:02.081Z,101260.31
2022-12-24T23:25:04.602Z,101260.56
2022-12-24T23:30:07.626Z,101264.13
2022-12-24T23:35:09.896Z,101262.59
2022-12-24T23:40:12.327Z,101259.03
2022-12-24T23:45:14.762Z,101255.06
2022-12-24T23:50:17.146Z,101260.38
2022-12-24T23:55:19.391Z,101249.41
